METAR Data
IDs: Format: Raw Decoded Include TAF

Data at: 1020 UTC 26 Sep 2018

KSUX 260952Z AUTO 23006KT 10SM CLR 07/04 A3021 RMK AO2 SLP231 T00670044
KSUX 260852Z AUTO 31007KT 10SM CLR 08/05 A3018 RMK AO2 SLP223 T00780050 53008
KSUX 260752Z AUTO 28006KT 10SM CLR 07/05 A3017 RMK AO2 SLP220 T00670050
KSUX 260652Z AUTO 28006KT 10SM CLR 08/06 A3016 RMK AO2 SLP217 T00830056
KSUX 260552Z AUTO 28007KT 10SM CLR 09/06 A3016 RMK AO2 SLP215 T00940056 10133 20094 401670094 53009
KSUX 260452Z AUTO 30007KT 10SM CLR 10/06 A3015 RMK AO2 SLP211 T01000061
KSUX 260352Z AUTO 26007KT 10SM CLR 10/07 A3013 RMK AO2 SLP206 T01000067
KSUX 260252Z AUTO 26007KT 10SM CLR 10/07 A3013 RMK AO2 SLP205 T01000072 51018
KSUX 260152Z AUTO 27004KT 10SM CLR 10/07 A3012 RMK AO2 SLP202 T01000072
KSUX 260052Z 29005KT 10SM CLR 12/07 A3010 RMK AO2 SLP195 T01170072
KSUX 252352Z 31005KT 10SM CLR 13/08 A3007 RMK AO2 SLP185 60000 T01280083 10167 20128 53011
KSUX 252252Z 34009KT 10SM FEW046 16/08 A3006 RMK AO2 SLP178 T01560083
KSUX 252152Z 33012G20KT 10SM FEW040 15/08 A3004 RMK AO2 SLP173 T01500083
KSUX 252052Z 33016KT 10SM OVC042 15/08 A3004 RMK AO2 SLP173 60000 T01500078 51001
KSUX 251952Z 33014KT 10SM SCT030 BKN038 15/09 A3004 RMK AO2 SLP171 T01500094
KSUX 251936Z 33014KT 10SM SCT028 BKN033 16/09 A3004 RMK AO2 T01560094
KSUX 251852Z 30015G23KT 10SM BKN026 BKN031 14/10 A3004 RMK AO2 PK WND 32027/1825 RAB01E11 SLP173 P0000 T01440100
KSUX 251835Z 33017G24KT 10SM FEW018 BKN030 BKN036 15/11 A3004 RMK AO2 PK WND 32027/1825 RAB01E11 P0000 T01500106
KSUX 251809Z 33012KT 10SM -RA BKN016 OVC027 14/12 A3004 RMK AO2 RAB01 P0000 T01390117
KSUX 251802Z 32008KT 10SM -RA BKN014 BKN019 OVC027 13/11 A3004 RMK AO2 RAB01 P0000 T01330111
KSUX 251752Z 31008KT 10SM BKN015 BKN019 OVC027 14/11 A3004 RMK AO2 SLP172 60015 T01390111 10139 20117 53018
KSUX 251739Z 33011KT 10SM OVC015 13/11 A3003 RMK AO2 T01330111
KSUX 251652Z 33010KT 10SM OVC009 12/11 A3001 RMK AO2 SLP164 T01220111
KSUX 251602Z 35010KT 10SM OVC009 13/12 A2998 RMK AO2 T01280117
KSUX 251559Z 35010KT 10SM OVC011 13/11 A2998 RMK AO2 T01280111
KSUX 251552Z 34012KT 10SM BKN009 BKN016 OVC055 13/12 A2998 RMK AO2 RAB07E43 SLP154 P0001 T01280117
KSUX 251500Z 32007KT 10SM BKN009 BKN016 OVC055 12/11 A2999 RMK AO2 PRESRR T01220111
KSUX 251452Z 34010KT 10SM SCT009 BKN016 BKN055 12/11 A2998 RMK AO2 RAE21 SLP153 P0004 60014 T01220111 51016
KSUX 251449Z 34010KT 10SM SCT009 BKN016 BKN055 12/11 A2998 RMK AO2 RAE21 P0004
KSUX 251411Z 01011KT 10SM -RA SCT009 BKN060 OVC100 12/11 A2996 RMK AO2 P0004 T01170111
KSUX 251352Z 35010KT 6SM RA BR BKN009 BKN035 OVC080 12/11 A2997 RMK AO2 RAB00 SLP150 P0010 T01170111
KSUX 251252Z 35013KT 10SM BKN009 OVC019 13/11 A2993 RMK AO2 LTG DSNT SE AND SW SLP137 T01280111
KSUX 251152Z 01010KT 10SM OVC009 13/12 A2991 RMK AO2 SLP129 T01330117 10144 20133 50012
KSUX 251115Z 01007KT 10SM BKN009 14/12 A2992 RMK AO2 T01390122
KSUX 251105Z 02008KT 10SM BKN010 OVC014 14/12 A2993 RMK AO2 CIG 008V014 T01390117
KSUX 251052Z 01009KT 10SM OVC008 14/12 A2993 RMK AO2 PRESRR SLP134 T01390122
KSUX 251019Z AUTO 03007KT 10SM OVC008 14/12 A2990 RMK AO2 PRESRR T01390122
KSUX 251003Z AUTO 06008KT 10SM BKN010 OVC019 14/12 A2987 RMK AO2 T01390122
KSUX 250952Z AUTO 04008KT 10SM SCT010 OVC019 14/12 A2989 RMK AO2 SLP121 T01390122
KSUX 250929Z AUTO 03005KT 10SM SCT007 OVC018 14/13 A2989 RMK AO2 T01390128
KSUX 250852Z AUTO 04008KT 10SM OVC006 14/13 A2988 RMK AO2 PRESFR SLP116 T01390128 58007
KSUX 250831Z AUTO 35007KT 5SM BR OVC008 14/13 A2990 RMK AO2 CIG 006V012 T01390128
KSUX 250752Z AUTO 33008KT 10SM OVC012 14/13 A2992 RMK AO2 SLP131 T01440128
KSUX 250652Z AUTO 33006KT 10SM OVC014 14/13 A2992 RMK AO2 SLP127 T01440128
KSUX 250626Z AUTO 33006KT 10SM OVC014 14/13 A2991 RMK AO2 T01440128
KSUX 250616Z AUTO 33007KT 10SM OVC015 14/12 A2990 RMK AO2 T01440122
KSUX 250605Z AUTO 33006KT 10SM OVC014 14/12 A2990 RMK AO2 T01440122
KSUX 250552Z AUTO 33009KT 10SM OVC016 14/12 A2990 RMK AO2 SLP122 T01440122 10172 20133 402330117 50003
KSUX 250452Z AUTO 34010KT 10SM OVC015 15/12 A2991 RMK AO2 SLP122 T01500122
KSUX 250403Z AUTO 33008KT 10SM BKN016 BKN050 14/12 A2990 RMK AO2 T01440122
KSUX 250352Z AUTO 33008KT 10SM SCT016 SCT050 14/12 A2990 RMK AO2 SLP122 T01390122
KSUX 250252Z AUTO 33007KT 10SM CLR 14/12 A2989 RMK AO2 SLP121 T01390122 51017
KSUX 250152Z 33013KT 10SM SCT045 15/12 A2988 RMK AO2 SLP117 T01500122
KSUX 250052Z 32005KT 10SM SCT047 OVC060 16/13 A2985 RMK AO2 SLP109 T01610133
KSUX 242352Z 30007KT 10SM BKN049 17/14 A2984 RMK AO2 SLP105 T01720139 10222 20172 55001
KSUX 242252Z 33006KT 10SM BKN049 18/14 A2982 RMK AO2 SLP096 T01780139